Apodi, Brazil

4:09 AM BRT on September 03, 2014 (GMT -0300)
Dix Sept Rosado | Change Station
CLOSE
Current Station
Airport
Location: Mocoro,
Elevation: 75 ft
Nearby Weather Stations

Elev 75 ft 5.20 °S, 37.36 °W | Updated 7 hours ago

Clear
Clear
75 °F
Feels Like 75 °F
N
11
Wind Variable Wind from East
Gusts mph

Today
High -- | Low -- °F
--% Chance of Precip.
Yesterday
High -- | Low -- °F
Precip. -- in
5:30 AM 5:30 PM
First Quarter, 59% visible
Pressure 29.95 in
Visibility -9999.0 miles
Clouds
Dew Point 70 °F
Humidity 85%
Rainfall 0.00 in
Snow Depth Not available.
UV Not available.
Pollen Not available.
Air Quality Not available.
Flu Activity Not available.
METAR SBMS 030000Z 04008KT CAVOK 27/22 Q1014

More Conditions Fewer Conditions

Pressure 29.95 in
Visibility -9999.0 miles
Clouds
Dew Point 70 °F
Humidity 85%
Rainfall 0.00 in
Snow Depth Not available.
UV Not available.
Pollen Not available.
Air Quality Not available.
Flu Activity Not available.
METAR SBMS 030000Z 04008KT CAVOK 27/22 Q1014

More Conditions Fewer Conditions

10-Day Weather Forecast

Almanac

Astronomy

Sep. 03, 2014 Rise Set
Actual Time 5:30 AM BRT 5:30 PM BRT
Civil Twilight 5:09 AM BRT 5:51 PM BRT
Nautical Twilight 4:45 AM BRT 6:16 PM BRT
Astronomical Twilight 4:20 AM BRT 6:40 PM BRT
Moon 12:16 PM BRT 12:03 AM BRT
Length of Visible Light 12h 42m
Length of Day
12h 00m
Tomorrow will be 0m 18s longer.
First Quarter, 59% of the Moon is Illuminated
Today
First Quarter
Sep 8
Full
Sep 15
Last Quarter
Sep 24
New
Oct 1
First Quarter

Yesterday's Extremes

Country Highs Country Lows

Community

WunderPhotos

Upload Photos

1,749,888 photos uploaded!

Nearby

Snow Depth

Not available.

Earthquake Activity

City Distance Mag. Time & Date
No recent earthquake activity has been reported nearby.
Minimum magnitude displayed is 2.5.

Coastal Water Temperatures

Place Temperature
No Stations Reporting

Nearby Weather Stations